createdAt,value
2016-04-15T00:00:50.019Z,1007.31
2016-04-15T00:01:50.007Z,1007.33
2016-04-15T00:02:50.009Z,1007.3
2016-04-15T00:03:49.996Z,1007.3
2016-04-15T00:04:49.984Z,1007.3
2016-04-15T00:05:49.970Z,1007.29
2016-04-15T00:06:49.973Z,1007.27
2016-04-15T00:07:49.960Z,1007.29
2016-04-15T00:08:49.947Z,1007.29
2016-04-15T00:09:49.934Z,1007.26
2016-04-15T00:10:49.937Z,1007.27
2016-04-15T00:11:49.924Z,1007.29
2016-04-15T00:12:49.912Z,1007.23
2016-04-15T00:13:49.898Z,1007.3
2016-04-15T00:14:49.901Z,1007.26
2016-04-15T00:15:49.888Z,1007.26
2016-04-15T00:16:49.891Z,1007.19
2016-04-15T00:17:49.878Z,1007.19
2016-04-15T00:18:49.864Z,1007.17
2016-04-15T00:19:49.867Z,1007.11
2016-04-15T00:20:49.854Z,1007.1
2016-04-15T00:21:49.841Z,1007.09
2016-04-15T00:22:49.828Z,1007.08
2016-04-15T00:23:49.815Z,1007.1
2016-04-15T00:24:49.818Z,1007.06
2016-04-15T00:25:49.805Z,1007.09
2016-04-15T00:26:49.793Z,1007.09
2016-04-15T00:27:49.780Z,1007.11
2016-04-15T00:28:49.782Z,1007.06
2016-04-15T00:29:49.769Z,1007.08
2016-04-15T00:30:49.756Z,1007.08
2016-04-15T00:31:49.759Z,1007.06
2016-04-15T00:32:49.747Z,1007.09
2016-04-15T00:33:49.734Z,1007.05
2016-04-15T00:34:49.721Z,1007
2016-04-15T00:35:49.716Z,1006.99
2016-04-15T00:36:49.702Z,1007.01
2016-04-15T00:37:49.690Z,1006.98
2016-04-15T00:38:49.692Z,1006.98
2016-04-15T00:39:49.679Z,1007
2016-04-15T00:40:49.682Z,1006.98
2016-04-15T00:41:49.668Z,1006.98
2016-04-15T00:42:50.109Z,1006.96
2016-04-15T00:43:49.642Z,1006.98
2016-04-15T00:44:49.645Z,1006.97
2016-04-15T00:45:49.633Z,1007.01
2016-04-15T00:46:49.714Z,1006.96
2016-04-15T00:47:49.607Z,1006.95
2016-04-15T00:48:49.595Z,1006.98
2016-04-15T00:49:49.597Z,1007
2016-04-15T00:50:49.584Z,1007.01
2016-04-15T00:51:49.571Z,1006.97
2016-04-15T00:52:49.573Z,1006.95
2016-04-15T00:53:49.561Z,1006.92
2016-04-15T00:54:49.547Z,1006.96
2016-04-15T00:55:49.535Z,1006.98
2016-04-15T00:56:49.880Z,1006.99
2016-04-15T00:57:49.524Z,1006.92
2016-04-15T00:58:50.402Z,1006.98
2016-04-15T00:59:49.529Z,1006.96
2016-04-15T01:00:50.673Z,1006.94
2016-04-15T01:01:49.488Z,1006.92
2016-04-15T01:02:49.475Z,1006.94
2016-04-15T01:03:49.478Z,1006.91
2016-04-15T01:04:49.465Z,1006.95
2016-04-15T01:05:49.452Z,1006.9
2016-04-15T01:06:49.439Z,1006.91
2016-04-15T01:07:49.754Z,1006.88
2016-04-15T01:08:50.601Z,1006.86
2016-04-15T01:09:49.416Z,1006.87
2016-04-15T01:10:49.403Z,1006.87
2016-04-15T01:11:49.390Z,1006.89
2016-04-15T01:12:49.376Z,1006.84
2016-04-15T01:13:49.379Z,1006.87
2016-04-15T01:14:49.367Z,1006.83
2016-04-15T01:15:49.369Z,1006.83
2016-04-15T01:16:49.357Z,1006.83
2016-04-15T01:17:49.344Z,1006.88
2016-04-15T01:18:49.331Z,1006.83
2016-04-15T01:19:49.318Z,1006.79
2016-04-15T01:20:49.320Z,1006.79
2016-04-15T01:21:49.308Z,1006.81
2016-04-15T01:22:49.294Z,1006.82
2016-04-15T01:23:49.297Z,1006.8
2016-04-15T01:24:49.284Z,1006.8
2016-04-15T01:25:49.271Z,1006.77
2016-04-15T01:26:49.275Z,1006.77
2016-04-15T01:27:49.261Z,1006.79
2016-04-15T01:28:49.249Z,1006.74
2016-04-15T01:29:49.361Z,1006.75
2016-04-15T01:30:49.222Z,1006.78
2016-04-15T01:31:49.225Z,1006.73
2016-04-15T01:32:49.212Z,1006.77
2016-04-15T01:33:49.199Z,1006.76
2016-04-15T01:34:49.186Z,1006.73
2016-04-15T01:35:49.189Z,1006.73
2016-04-15T01:36:49.176Z,1006.7
2016-04-15T01:37:49.163Z,1006.74
2016-04-15T01:38:49.165Z,1006.77
2016-04-15T01:39:49.153Z,1006.74
2016-04-15T01:40:49.140Z,1006.76
2016-04-15T01:41:49.126Z,1006.76
2016-04-15T01:42:49.130Z,1006.72
2016-04-15T01:43:49.117Z,1006.7
2016-04-15T01:44:49.120Z,1006.73
2016-04-15T01:45:49.091Z,1006.68
2016-04-15T01:46:49.093Z,1006.66
2016-04-15T01:47:49.081Z,1006.66
2016-04-15T01:48:49.067Z,1006.62
2016-04-15T01:49:49.070Z,1006.63
2016-04-15T01:50:49.058Z,1006.61
2016-04-15T01:51:49.044Z,1006.57
2016-04-15T01:52:49.031Z,1006.58
2016-04-15T01:53:49.033Z,1006.55
2016-04-15T01:54:49.021Z,1006.59
2016-04-15T01:55:49.008Z,1006.57
2016-04-15T01:56:48.994Z,1006.54
2016-04-15T01:57:48.983Z,1006.54
2016-04-15T01:58:48.985Z,1006.49
2016-04-15T01:59:48.972Z,1006.47
2016-04-15T02:00:49.413Z,1006.45
2016-04-15T02:01:48.963Z,1006.43
2016-04-15T02:02:49.136Z,1006.38
2016-04-15T02:04:48.923Z,1006.37
2016-04-15T02:05:48.926Z,1006.37
2016-04-15T02:06:48.913Z,1006.35
2016-04-15T02:07:48.900Z,1006.35
2016-04-15T02:08:48.888Z,1006.3
2016-04-15T02:09:49.437Z,1006.31
2016-04-15T02:10:48.877Z,1006.31
2016-04-15T02:11:48.865Z,1006.28
2016-04-15T02:12:49.757Z,1006.28
2016-04-15T02:13:48.854Z,1006.25
2016-04-15T02:14:48.840Z,1006.24
2016-04-15T02:15:48.828Z,1006.22
2016-04-15T02:16:48.862Z,1006.18
2016-04-15T02:17:48.817Z,1006.17
2016-04-15T02:18:48.804Z,1006.17
2016-04-15T02:19:48.791Z,1006.18
2016-04-15T02:20:48.778Z,1006.17
2016-04-15T02:21:48.766Z,1006.14
2016-04-15T02:22:48.768Z,1006.14
2016-04-15T02:23:48.756Z,1006.07
2016-04-15T02:24:48.742Z,1006.06
2016-04-15T02:25:48.730Z,1006.05
2016-04-15T02:26:48.733Z,1006.03
2016-04-15T02:27:48.719Z,1006.01
2016-04-15T02:28:48.706Z,1006.01
2016-04-15T02:29:48.834Z,1005.97
2016-04-15T02:30:48.696Z,1005.99
2016-04-15T02:31:48.683Z,1005.97
2016-04-15T02:32:48.671Z,1005.96
2016-04-15T02:33:48.673Z,1005.97
2016-04-15T02:34:48.660Z,1005.93
2016-04-15T02:35:48.646Z,1005.95
2016-04-15T02:36:48.634Z,1005.94
2016-04-15T02:37:48.621Z,1005.94
2016-04-15T02:38:48.624Z,1005.91
2016-04-15T02:39:48.611Z,1005.9
2016-04-15T02:40:48.598Z,1005.91
2016-04-15T02:41:48.585Z,1005.89
2016-04-15T02:42:48.588Z,1005.9
2016-04-15T02:43:48.559Z,1005.9
2016-04-15T02:44:48.562Z,1005.88
2016-04-15T02:45:48.548Z,1005.85
2016-04-15T02:46:48.536Z,1005.85
2016-04-15T02:47:48.539Z,1005.83
2016-04-15T02:48:48.526Z,1005.82
2016-04-15T02:49:48.513Z,1005.85
2016-04-15T02:50:48.516Z,1005.83
2016-04-15T02:51:48.503Z,1005.81
2016-04-15T02:52:48.490Z,1005.81
2016-04-15T02:53:48.478Z,1005.8
2016-04-15T02:54:48.480Z,1005.79
2016-04-15T02:55:48.467Z,1005.82
2016-04-15T02:56:48.453Z,1005.78
2016-04-15T02:57:48.441Z,1005.75
2016-04-15T02:58:48.444Z,1005.72
2016-04-15T02:59:48.414Z,1005.69
2016-04-15T03:00:48.417Z,1005.69
2016-04-15T03:01:48.405Z,1005.67
2016-04-15T03:02:48.408Z,1005.68
2016-04-15T03:03:48.379Z,1005.64
2016-04-15T03:04:48.382Z,1005.66
2016-04-15T03:05:48.385Z,1005.67
2016-04-15T03:06:48.355Z,1005.62
2016-04-15T03:07:48.358Z,1005.61
2016-04-15T03:08:48.346Z,1005.61
2016-04-15T03:09:48.332Z,1005.61
2016-04-15T03:10:48.319Z,1005.59
2016-04-15T03:11:48.306Z,1005.57
2016-04-15T03:12:48.309Z,1005.57
2016-04-15T03:13:48.312Z,1005.57
2016-04-15T03:14:48.283Z,1005.55
2016-04-15T03:15:48.270Z,1005.54
2016-04-15T03:16:48.257Z,1005.55
2016-04-15T03:18:48.934Z,1005.52
2016-04-15T03:19:48.234Z,1005.46
2016-04-15T03:20:48.221Z,1005.5
2016-04-15T03:21:48.224Z,1005.45
2016-04-15T03:22:48.211Z,1005.47
2016-04-15T03:23:48.198Z,1005.47
2016-04-15T03:24:48.186Z,1005.49
2016-04-15T03:25:48.188Z,1005.49
2016-04-15T03:27:48.161Z,1005.48
2016-04-15T03:28:48.149Z,1005.48
2016-04-15T03:29:48.292Z,1005.45
2016-04-15T03:30:49.092Z,1005.48
2016-04-15T03:31:48.126Z,1005.45
2016-04-15T03:32:48.894Z,1005.4
2016-04-15T03:33:48.303Z,1005.42
2016-04-15T03:34:48.103Z,1005.41
2016-04-15T03:35:48.090Z,1005.41
2016-04-15T03:36:48.077Z,1005.39
2016-04-15T03:37:48.079Z,1005.4
2016-04-15T03:38:48.066Z,1005.39
2016-04-15T03:39:48.054Z,1005.37
2016-04-15T03:40:48.041Z,1005.4
2016-04-15T03:41:48.043Z,1005.38
2016-04-15T03:42:48.015Z,1005.38
2016-04-15T03:43:48.018Z,1005.4
2016-04-15T03:44:48.020Z,1005.36
2016-04-15T03:45:47.992Z,1005.36
2016-04-15T03:46:47.979Z,1005.34
2016-04-15T03:47:47.982Z,1005.36
2016-04-15T03:48:47.968Z,1005.35
2016-04-15T03:49:47.956Z,1005.34
2016-04-15T03:50:47.958Z,1005.31
2016-04-15T03:51:47.945Z,1005.33
2016-04-15T03:52:47.932Z,1005.29
2016-04-15T03:53:47.919Z,1005.3
2016-04-15T03:54:47.906Z,1005.26
2016-04-15T03:55:47.894Z,1005.28
2016-04-15T03:56:47.896Z,1005.22
2016-04-15T03:57:47.883Z,1005.19
2016-04-15T03:58:47.869Z,1005.22
2016-04-15T03:59:47.872Z,1005.22
2016-04-15T04:00:47.860Z,1005.2
2016-04-15T04:01:47.847Z,1005.19
2016-04-15T04:02:47.834Z,1005.17
2016-04-15T04:03:47.836Z,1005.15
2016-04-15T04:04:47.808Z,1005.13
2016-04-15T04:05:47.811Z,1005.14
2016-04-15T04:06:47.798Z,1005.16
2016-04-15T04:07:47.801Z,1005.13
2016-04-15T04:08:47.772Z,1005.12
2016-04-15T04:09:47.774Z,1005.15
2016-04-15T04:10:47.762Z,1005.14
2016-04-15T04:11:47.749Z,1005.15
2016-04-15T04:12:47.752Z,1005.14
2016-04-15T04:13:47.738Z,1005.14
2016-04-15T04:14:47.726Z,1005.15
2016-04-15T04:15:47.729Z,1005.16
2016-04-15T04:16:47.700Z,1005.16
2016-04-15T04:17:47.703Z,1005.13
2016-04-15T04:18:47.690Z,1005.1
2016-04-15T04:19:47.676Z,1005.06
2016-04-15T04:20:47.679Z,1005.05
2016-04-15T04:21:47.667Z,1005.02
2016-04-15T04:22:47.653Z,1005.06
2016-04-15T04:23:47.640Z,1005.03
2016-04-15T04:24:47.642Z,1005.04
2016-04-15T04:25:47.630Z,1005.05
2016-04-15T04:26:47.617Z,1005.08
2016-04-15T04:27:47.605Z,1005.07
2016-04-15T04:28:47.608Z,1005.05
2016-04-15T04:29:47.595Z,1005.02
2016-04-15T04:30:47.597Z,1005.01
2016-04-15T04:31:47.569Z,1005
2016-04-15T04:32:47.572Z,1005
2016-04-15T04:33:47.558Z,1005.01
2016-04-15T04:34:47.545Z,1004.96
2016-04-15T04:35:47.532Z,1004.99
2016-04-15T04:36:48.472Z,1004.96
2016-04-15T04:37:47.522Z,1004.98
2016-04-15T04:38:47.524Z,1004.98
2016-04-15T04:39:48.262Z,1004.96
2016-04-15T04:40:47.498Z,1004.99
2016-04-15T04:41:47.485Z,1005.03
2016-04-15T04:42:47.488Z,1005.05
2016-04-15T04:43:47.476Z,1005.04
2016-04-15T04:44:47.463Z,1005
2016-04-15T04:45:48.637Z,1005.04
2016-04-15T04:46:48.452Z,1005.02
2016-04-15T04:47:47.596Z,1004.99
2016-04-15T04:48:47.426Z,1005.02
2016-04-15T04:49:47.429Z,1005.01
2016-04-15T04:50:47.416Z,1005
2016-04-15T04:51:47.420Z,1004.97
2016-04-15T04:52:47.416Z,1005.01
2016-04-15T04:53:47.391Z,1004.97
2016-04-15T04:54:47.399Z,1005.01
2016-04-15T04:55:47.401Z,1004.96
2016-04-15T04:56:47.373Z,1005
2016-04-15T04:57:47.359Z,1004.99
2016-04-15T04:58:47.362Z,1004.97
2016-04-15T04:59:47.350Z,1004.96
2016-04-15T05:00:47.353Z,1005.01
2016-04-15T05:01:47.339Z,1004.98
2016-04-15T05:02:47.327Z,1004.98
2016-04-15T05:03:47.314Z,1004.93
2016-04-15T05:04:47.316Z,1004.97
2016-04-15T05:05:47.303Z,1004.99
2016-04-15T05:06:47.290Z,1004.97
2016-04-15T05:07:47.293Z,1004.9
2016-04-15T05:08:47.280Z,1004.95
2016-04-15T05:09:47.266Z,1004.94
2016-04-15T05:10:47.270Z,1004.96
2016-04-15T05:11:47.257Z,1004.93
2016-04-15T05:12:47.244Z,1004.95
2016-04-15T05:13:47.247Z,1004.93
2016-04-15T05:14:47.234Z,1004.94
2016-04-15T05:15:47.237Z,1004.97
2016-04-15T05:16:47.224Z,1004.94
2016-04-15T05:17:47.226Z,1004.95
2016-04-15T05:18:47.213Z,1005.01
2016-04-15T05:19:47.215Z,1005
2016-04-15T05:20:47.203Z,1005.02
2016-04-15T05:21:47.190Z,1005.06
2016-04-15T05:22:47.192Z,1005.04
2016-04-15T05:23:47.179Z,1005.03
2016-04-15T05:24:47.182Z,1005.06
2016-04-15T05:25:47.169Z,1005
2016-04-15T05:26:47.156Z,1004.99
2016-04-15T05:27:47.159Z,1004.99
2016-04-15T05:28:47.147Z,1005
2016-04-15T05:29:47.150Z,1004.95
2016-04-15T05:30:47.152Z,1004.95
2016-04-15T05:31:47.139Z,1004.95
2016-04-15T05:32:47.125Z,1004.96
2016-04-15T05:33:47.128Z,1004.98
2016-04-15T05:34:47.116Z,1004.97
2016-04-15T05:35:47.118Z,1004.95
2016-04-15T05:36:47.122Z,1004.96
2016-04-15T05:37:47.108Z,1004.95
2016-04-15T05:38:47.111Z,1004.99
2016-04-15T05:39:47.114Z,1004.96
2016-04-15T05:40:47.100Z,1004.98
2016-04-15T05:41:47.103Z,1004.96
2016-04-15T05:42:47.105Z,1004.91
2016-04-15T05:43:47.093Z,1004.89
2016-04-15T05:44:47.096Z,1004.89
2016-04-15T05:45:47.113Z,1004.94
2016-04-15T05:46:47.085Z,1005.01
2016-04-15T05:47:47.088Z,1004.98
2016-04-15T05:48:47.075Z,1004.98
2016-04-15T05:49:47.078Z,1004.94
2016-04-15T05:50:47.081Z,1004.91
2016-04-15T05:51:47.067Z,1004.84
2016-04-15T05:52:47.071Z,1004.87
2016-04-15T05:53:47.073Z,1004.84
2016-04-15T05:54:47.076Z,1004.84
2016-04-15T05:55:47.173Z,1004.85
2016-04-15T05:56:47.065Z,1004.86
2016-04-15T05:57:48.271Z,1004.85
2016-04-15T05:58:47.570Z,1004.86
2016-04-15T05:59:47.058Z,1004.92
2016-04-15T06:00:47.139Z,1004.9
2016-04-15T06:01:47.360Z,1004.93
2016-04-15T06:02:47.066Z,1004.92
2016-04-15T06:03:47.052Z,1004.95
2016-04-15T06:04:47.914Z,1004.93
2016-04-15T06:05:47.605Z,1004.9
2016-04-15T06:06:47.060Z,1004.91
2016-04-15T06:07:47.422Z,1004.9
2016-04-15T06:08:47.550Z,1004.91
2016-04-15T06:09:47.116Z,1004.85
2016-04-15T06:10:47.056Z,1004.82
2016-04-15T06:11:47.044Z,1004.78
2016-04-15T06:12:47.046Z,1004.8
2016-04-15T06:13:47.049Z,1004.84
2016-04-15T06:14:47.035Z,1004.8
2016-04-15T06:15:47.054Z,1004.77
2016-04-15T06:16:47.041Z,1004.8
2016-04-15T06:17:47.043Z,1004.82
2016-04-15T06:18:47.046Z,1004.78
2016-04-15T06:19:47.049Z,1004.8
2016-04-15T06:20:47.037Z,1004.82
2016-04-15T06:21:47.044Z,1004.79
2016-04-15T06:22:47.033Z,1004.81
2016-04-15T06:23:47.036Z,1004.84
2016-04-15T06:24:47.039Z,1004.85
2016-04-15T06:25:47.041Z,1004.85
2016-04-15T06:26:47.044Z,1004.88
2016-04-15T06:27:47.035Z,1004.87
2016-04-15T06:28:47.038Z,1004.89
2016-04-15T06:29:47.024Z,1004.84
2016-04-15T06:30:47.059Z,1004.85
2016-04-15T06:31:47.030Z,1004.84
2016-04-15T06:32:47.033Z,1004.79
2016-04-15T06:33:47.036Z,1004.84
2016-04-15T06:34:47.039Z,1004.87
2016-04-15T06:35:47.041Z,1004.9
2016-04-15T06:36:47.044Z,1004.98
2016-04-15T06:37:47.047Z,1004.96
2016-04-15T06:38:47.049Z,1004.95
2016-04-15T06:39:47.037Z,1004.94
2016-04-15T06:40:47.039Z,1004.94
2016-04-15T06:41:47.042Z,1005.01
2016-04-15T06:42:47.045Z,1005.07
2016-04-15T06:43:47.047Z,1005.17
2016-04-15T06:44:47.050Z,1005.24
2016-04-15T06:45:47.052Z,1005.38
2016-04-15T06:46:47.055Z,1005.36
2016-04-15T06:47:47.058Z,1005.35
2016-04-15T06:48:47.060Z,1005.21
2016-04-15T06:49:47.064Z,1005.33
2016-04-15T06:50:47.066Z,1005.46
2016-04-15T06:51:47.069Z,1005.44
2016-04-15T06:52:47.072Z,1005.47
2016-04-15T06:53:47.074Z,1005.41
2016-04-15T06:54:47.077Z,1005.49
2016-04-15T06:55:47.079Z,1005.5
2016-04-15T06:56:47.097Z,1005.48
2016-04-15T06:57:47.100Z,1005.47
2016-04-15T06:58:47.119Z,1005.32
2016-04-15T06:59:47.106Z,1004.94
2016-04-15T07:00:47.109Z,1004.89
2016-04-15T07:01:47.127Z,1004.89
2016-04-15T07:02:47.130Z,1005.06
2016-04-15T07:03:47.132Z,1005.04
2016-04-15T07:04:47.135Z,1005.06
2016-04-15T07:05:47.138Z,1005.19
2016-04-15T07:06:47.156Z,1005.11
2016-04-15T07:07:47.159Z,1005.08
2016-04-15T07:08:47.162Z,1005.03
2016-04-15T07:09:47.164Z,1004.84
2016-04-15T07:10:47.167Z,1004.63
2016-04-15T07:11:47.169Z,1004.72
2016-04-15T07:12:47.187Z,1004.7
2016-04-15T07:13:47.190Z,1004.69
2016-04-15T07:14:47.193Z,1004.64
2016-04-15T07:15:47.212Z,1004.65
2016-04-15T07:16:47.214Z,1004.73
2016-04-15T07:17:47.420Z,1004.82
2016-04-15T07:18:47.220Z,1004.88
2016-04-15T07:19:47.238Z,1004.93
2016-04-15T07:20:47.240Z,1004.87
2016-04-15T07:21:47.294Z,1004.82
2016-04-15T07:22:47.250Z,1004.82
2016-04-15T07:23:48.222Z,1004.9
2016-04-15T07:24:47.537Z,1005.09
2016-04-15T07:26:47.260Z,1005.08
2016-04-15T07:27:47.268Z,1005
2016-04-15T07:28:47.897Z,1004.89
2016-04-15T07:29:47.337Z,1004.93
2016-04-15T07:30:47.293Z,1004.78
2016-04-15T07:31:47.296Z,1004.71
2016-04-15T07:32:47.298Z,1004.6
2016-04-15T07:33:47.317Z,1004.49
2016-04-15T07:34:47.319Z,1004.38
2016-04-15T07:35:47.322Z,1004.51
2016-04-15T07:36:47.340Z,1004.43
2016-04-15T07:37:47.327Z,1004.39
2016-04-15T07:38:47.345Z,1004.4
2016-04-15T07:39:47.348Z,1004.46
2016-04-15T07:40:47.350Z,1004.42
2016-04-15T07:41:47.370Z,1004.31
2016-04-15T07:42:47.372Z,1004.31
2016-04-15T07:43:47.375Z,1004.31
2016-04-15T07:44:47.393Z,1004.32
2016-04-15T07:45:47.380Z,1004.36
2016-04-15T07:46:47.398Z,1004.37
2016-04-15T07:47:47.400Z,1004.34
2016-04-15T07:48:47.419Z,1004.43
2016-04-15T07:49:47.422Z,1004.42
2016-04-15T07:50:47.424Z,1004.33
2016-04-15T07:51:47.427Z,1004.31
2016-04-15T07:52:47.429Z,1004.2
2016-04-15T07:53:47.448Z,1004.21
2016-04-15T07:54:47.451Z,1004.2
2016-04-15T07:55:47.468Z,1004.21
2016-04-15T07:56:47.472Z,1004.13
2016-04-15T07:57:47.474Z,1004.13
2016-04-15T07:58:47.493Z,1004.21
2016-04-15T07:59:47.479Z,1004.12
2016-04-15T08:00:47.498Z,1004.01
2016-04-15T08:01:47.501Z,1004.05
2016-04-15T08:02:47.519Z,1004.02
2016-04-15T08:03:47.522Z,1003.9
2016-04-15T08:04:47.525Z,1003.86
2016-04-15T08:05:47.543Z,1003.93
2016-04-15T08:06:47.546Z,1003.9
2016-04-15T08:07:47.549Z,1003.88
2016-04-15T08:08:47.567Z,1003.9
2016-04-15T08:09:47.570Z,1003.87
2016-04-15T08:10:47.572Z,1003.88
2016-04-15T08:11:47.575Z,1003.78
2016-04-15T08:12:47.593Z,1003.73
2016-04-15T08:13:47.595Z,1003.76
2016-04-15T08:14:47.598Z,1003.81
2016-04-15T08:15:47.616Z,1003.92
2016-04-15T08:16:47.604Z,1003.92
2016-04-15T08:17:47.622Z,1003.88
2016-04-15T08:18:47.641Z,1003.83
2016-04-15T08:19:47.644Z,1003.72
2016-04-15T08:20:47.646Z,1003.83
2016-04-15T08:21:47.654Z,1003.84
2016-04-15T08:22:47.657Z,1003.81
2016-04-15T08:23:47.659Z,1003.75
2016-04-15T08:24:47.678Z,1003.66
2016-04-15T08:25:47.664Z,1003.61
2016-04-15T08:26:47.667Z,1003.53
2016-04-15T08:27:47.670Z,1003.55
2016-04-15T08:28:47.672Z,1003.49
2016-04-15T08:29:47.692Z,1003.5
2016-04-15T08:30:47.694Z,1003.57
2016-04-15T08:31:47.702Z,1003.62
2016-04-15T08:32:47.747Z,1003.67
2016-04-15T08:33:47.808Z,1003.76
2016-04-15T08:34:47.837Z,1003.74
2016-04-15T08:35:48.930Z,1003.73
2016-04-15T08:36:47.941Z,1003.67
2016-04-15T08:37:48.209Z,1003.62
2016-04-15T08:38:48.070Z,1003.53
2016-04-15T08:39:47.995Z,1003.48
2016-04-15T08:40:48.075Z,1003.46
2016-04-15T08:41:48.123Z,1003.45
2016-04-15T08:42:48.756Z,1003.5
2016-04-15T08:43:48.046Z,1003.45
2016-04-15T08:44:48.430Z,1003.43
2016-04-15T08:45:48.078Z,1003.46
2016-04-15T08:46:48.195Z,1003.42
2016-04-15T08:47:48.231Z,1003.43
2016-04-15T08:48:48.094Z,1003.46
2016-04-15T08:49:48.709Z,1003.45
2016-04-15T08:50:48.103Z,1003.43
2016-04-15T08:51:48.108Z,1003.44
2016-04-15T08:52:48.112Z,1003.43
2016-04-15T08:53:48.115Z,1003.35
2016-04-15T08:54:48.119Z,1003.32
2016-04-15T08:55:48.138Z,1003.29
2016-04-15T08:56:48.141Z,1003.31
2016-04-15T08:57:48.128Z,1003.27
2016-04-15T08:58:48.147Z,1003.3
2016-04-15T08:59:48.151Z,1003.27
2016-04-15T09:00:48.153Z,1003.29
2016-04-15T09:01:48.156Z,1003.2
2016-04-15T09:02:48.159Z,1003.22
2016-04-15T09:03:48.162Z,1003.23
2016-04-15T09:04:48.165Z,1003.26
2016-04-15T09:05:48.168Z,1003.21
2016-04-15T09:06:48.170Z,1003.23
2016-04-15T09:07:48.173Z,1003.29
2016-04-15T09:08:48.191Z,1003.14
2016-04-15T09:09:48.194Z,1003.17
2016-04-15T09:10:48.197Z,1003.15
2016-04-15T09:11:48.199Z,1003.12
2016-04-15T09:12:48.202Z,1003.13
2016-04-15T09:13:48.204Z,1003.05
2016-04-15T09:14:48.207Z,1003.03
2016-04-15T09:15:48.210Z,1003.03
2016-04-15T09:16:48.213Z,1003.01
2016-04-15T09:17:48.216Z,1003.08
2016-04-15T09:18:48.218Z,1003.12
2016-04-15T09:19:48.236Z,1003.07
2016-04-15T09:20:48.238Z,1003.09
2016-04-15T09:21:48.241Z,1003.05
2016-04-15T09:22:48.244Z,1002.97
2016-04-15T09:23:48.247Z,1003
2016-04-15T09:24:48.249Z,1003.04
2016-04-15T09:25:48.253Z,1002.99
2016-04-15T09:26:48.255Z,1003.08
2016-04-15T09:27:48.258Z,1003.05
2016-04-15T09:28:48.260Z,1003.04
2016-04-15T09:29:48.263Z,1003.01
2016-04-15T09:30:48.266Z,1003.04
2016-04-15T09:31:48.284Z,1003.11
2016-04-15T09:32:48.287Z,1003.11
2016-04-15T09:33:48.289Z,1003.12
2016-04-15T09:34:48.292Z,1003.15
2016-04-15T09:35:48.295Z,1003.14
2016-04-15T09:36:48.298Z,1003.12
2016-04-15T09:37:48.301Z,1003.11
2016-04-15T09:38:48.318Z,1003.03
2016-04-15T09:39:48.306Z,1003.06
2016-04-15T09:40:48.308Z,1003.08
2016-04-15T09:41:48.326Z,1003.05
2016-04-15T09:42:48.329Z,1003.05
2016-04-15T09:43:48.331Z,1003.07
2016-04-15T09:44:48.334Z,1003.14
2016-04-15T09:45:48.336Z,1003.07
2016-04-15T09:46:48.339Z,1003.06
2016-04-15T09:47:48.342Z,1002.96
2016-04-15T09:48:48.345Z,1002.99
2016-04-15T09:49:48.348Z,1003
2016-04-15T09:50:48.366Z,1002.95
2016-04-15T09:51:48.369Z,1002.95
2016-04-15T09:52:48.371Z,1002.9
2016-04-15T09:53:49.140Z,1002.88
2016-04-15T09:54:48.674Z,1002.89
2016-04-15T09:55:49.536Z,1002.85
2016-04-15T09:56:48.383Z,1002.88
2016-04-15T09:57:49.089Z,1002.83
2016-04-15T09:58:48.404Z,1002.86
2016-04-15T09:59:48.407Z,1002.84
2016-04-15T10:00:48.409Z,1002.88
2016-04-15T10:01:48.412Z,1002.88
2016-04-15T10:02:48.429Z,1002.9
2016-04-15T10:03:48.417Z,1002.93
2016-04-15T10:04:48.529Z,1002.94
2016-04-15T10:05:48.984Z,1002.85
2016-04-15T10:06:48.440Z,1002.88
2016-04-15T10:07:48.443Z,1002.88
2016-04-15T10:08:48.446Z,1002.81
2016-04-15T10:09:48.449Z,1002.75
2016-04-15T10:10:48.451Z,1002.76
2016-04-15T10:11:48.470Z,1002.7
2016-04-15T10:12:48.472Z,1002.6
2016-04-15T10:13:48.475Z,1002.55
2016-04-15T10:14:48.478Z,1002.52
2016-04-15T10:15:48.480Z,1002.49
2016-04-15T10:16:48.499Z,1002.5
2016-04-15T10:17:48.485Z,1002.45
2016-04-15T10:18:48.504Z,1002.44
2016-04-15T10:19:48.507Z,1002.39
2016-04-15T10:20:48.510Z,1002.36
2016-04-15T10:21:48.513Z,1002.33
2016-04-15T10:22:48.515Z,1002.37
2016-04-15T10:23:48.518Z,1002.33
2016-04-15T10:24:48.520Z,1002.34
2016-04-15T10:25:48.538Z,1002.33
2016-04-15T10:26:48.541Z,1002.38
2016-04-15T10:27:48.544Z,1002.46
2016-04-15T10:28:48.532Z,1002.46
2016-04-15T10:29:48.550Z,1002.45
2016-04-15T10:30:48.552Z,1002.42
2016-04-15T10:31:48.555Z,1002.38
2016-04-15T10:32:48.557Z,1002.38
2016-04-15T10:33:48.560Z,1002.41
2016-04-15T10:34:48.562Z,1002.44
2016-04-15T10:35:48.565Z,1002.37
2016-04-15T10:36:48.568Z,1002.32
2016-04-15T10:37:48.570Z,1002.27
2016-04-15T10:38:48.574Z,1002.18
2016-04-15T10:39:48.576Z,1002.15
2016-04-15T10:40:48.579Z,1002.13
2016-04-15T10:41:48.581Z,1002.14
2016-04-15T10:42:48.584Z,1002.18
2016-04-15T10:43:48.587Z,1002.19
2016-04-15T10:44:48.589Z,1002.27
2016-04-15T10:45:48.592Z,1002.3
2016-04-15T10:46:48.625Z,1002.35
2016-04-15T10:47:48.613Z,1002.38
2016-04-15T10:48:48.600Z,1002.42
2016-04-15T10:49:48.602Z,1002.47
2016-04-15T10:50:48.606Z,1002.43
2016-04-15T10:51:48.608Z,1002.47
2016-04-15T10:52:48.611Z,1002.51
2016-04-15T10:53:48.613Z,1002.53
2016-04-15T10:54:48.616Z,1002.52
2016-04-15T10:55:48.619Z,1002.49
2016-04-15T10:56:48.622Z,1002.52
2016-04-15T10:57:48.625Z,1002.55
2016-04-15T10:58:48.628Z,1002.48
2016-04-15T10:59:48.630Z,1002.49
2016-04-15T11:00:48.633Z,1002.45
2016-04-15T11:01:48.792Z,1002.45
2016-04-15T11:02:48.638Z,1002.38
2016-04-15T11:03:48.641Z,1002.36
2016-04-15T11:04:48.643Z,1002.35
2016-04-15T11:05:48.646Z,1002.25
2016-04-15T11:06:48.648Z,1002.25
2016-04-15T11:07:48.651Z,1002.24
2016-04-15T11:08:48.639Z,1002.2
2016-04-15T11:09:48.657Z,1002.14
2016-04-15T11:10:48.660Z,1002.16
2016-04-15T11:11:48.662Z,1002.14
2016-04-15T11:12:48.665Z,1002.1
2016-04-15T11:13:48.809Z,1002.1
2016-04-15T11:14:48.655Z,1002.11
2016-04-15T11:15:48.767Z,1002.08
2016-04-15T11:16:48.894Z,1002.07
2016-04-15T11:17:48.663Z,1002.03
2016-04-15T11:18:48.680Z,1002.09
2016-04-15T11:19:48.668Z,1002.06
2016-04-15T11:20:48.671Z,1002.09
2016-04-15T11:21:48.674Z,1002
2016-04-15T11:22:48.677Z,1002
2016-04-15T11:23:48.679Z,1001.99
2016-04-15T11:24:49.478Z,1001.96
2016-04-15T11:25:48.684Z,1001.98
2016-04-15T11:26:48.733Z,1002.07
2016-04-15T11:27:48.674Z,1001.98
2016-04-15T11:28:48.693Z,1001.95
2016-04-15T11:29:48.680Z,1001.95
2016-04-15T11:30:48.683Z,1001.94
2016-04-15T11:31:48.685Z,1001.87
2016-04-15T11:32:48.672Z,1001.84
2016-04-15T11:33:48.674Z,1001.82
2016-04-15T11:34:48.677Z,1001.81
2016-04-15T11:35:48.680Z,1001.79
2016-04-15T11:36:48.682Z,1001.76
2016-04-15T11:37:48.685Z,1001.79
2016-04-15T11:38:48.687Z,1001.8
2016-04-15T11:39:48.691Z,1001.79
2016-04-15T11:40:48.678Z,1001.8
2016-04-15T11:41:48.681Z,1001.78
2016-04-15T11:42:48.683Z,1001.73
2016-04-15T11:43:48.686Z,1001.68
2016-04-15T11:44:48.689Z,1001.75
2016-04-15T11:45:48.691Z,1001.7
2016-04-15T11:46:48.678Z,1001.72
2016-04-15T11:47:48.681Z,1001.72
2016-04-15T11:48:48.683Z,1001.75
2016-04-15T11:49:48.686Z,1001.71
2016-04-15T11:50:48.689Z,1001.72
2016-04-15T11:51:48.691Z,1001.71
2016-04-15T11:52:48.694Z,1001.65
2016-04-15T11:53:48.697Z,1001.67
2016-04-15T11:54:48.683Z,1001.64
2016-04-15T11:55:48.686Z,1001.57
2016-04-15T11:56:48.674Z,1001.54
2016-04-15T11:57:48.677Z,1001.52
2016-04-15T11:58:48.680Z,1001.52
2016-04-15T11:59:48.682Z,1001.47
2016-04-15T12:00:48.685Z,1001.53
2016-04-15T12:01:48.687Z,1001.53
2016-04-15T12:02:48.690Z,1001.5
2016-04-15T12:03:48.692Z,1001.43
2016-04-15T12:04:48.679Z,1001.41
2016-04-15T12:05:48.682Z,1001.42
2016-04-15T12:06:48.685Z,1001.36
2016-04-15T12:07:48.687Z,1001.35
2016-04-15T12:08:48.691Z,1001.35
2016-04-15T12:09:48.680Z,1001.32
2016-04-15T12:10:48.683Z,1001.33
2016-04-15T12:11:48.686Z,1001.21
2016-04-15T12:12:48.688Z,1001.23
2016-04-15T12:13:48.691Z,1001.23